Time;durP1;ratioP1;P1;durP2;ratioP2;P2;SDS_P1;SDS_P2;PMS_P1;PMS_P2;Temp;Humidity;BMP_temperature;BMP_pressure;BME280_temperature;BME280_humidity;BME280_pressure;Samples;Min_cycle;Max_cycle;Signal;HPM_P1;HPM_P2
2022/12/09 00:02:13;;;;;;;57.00;23.20;;;;;;;0.91;100.00;99954.16;106870;1237;98995;-70
2022/12/09 00:04:38;;;;;;;51.70;21.50;;;;;;;0.90;100.00;99953.30;106600;1247;139468;-70
2022/12/09 00:07:04;;;;;;;54.00;22.50;;;;;;;0.90;100.00;99949.95;106853;1244;99820;-70
2022/12/09 00:09:29;;;;;;;58.70;23.50;;;;;;;0.90;100.00;99947.84;106708;1243;140276;-70
2022/12/09 00:11:54;;;;;;;51.20;21.80;;;;;;;0.91;100.00;99943.44;106808;1235;99714;-71
2022/12/09 00:14:19;;;;;;;56.80;22.10;;;;;;;0.93;100.00;99945.17;106877;1246;99063;-71
2022/12/09 00:16:45;;;;;;;59.00;22.60;;;;;;;0.95;100.00;99942.66;106672;1238;139163;-70
2022/12/09 00:19:10;;;;;;;57.50;22.70;;;;;;;0.97;100.00;99948.45;106850;1235;99341;-71
2022/12/09 00:21:35;;;;;;;57.90;22.90;;;;;;;0.95;100.00;99949.00;106703;1248;139308;-70
2022/12/09 00:24:04;;;;;;;51.00;22.30;;;;;;;0.95;100.00;99949.19;106769;1238;100815;-71
2022/12/09 00:26:30;;;;;;;61.10;22.80;;;;;;;0.96;100.00;99951.98;106790;1235;99079;-70
2022/12/09 00:28:56;;;;;;;59.70;22.80;;;;;;;0.97;100.00;99958.29;106800;1243;139606;-70
2022/12/09 00:31:24;;;;;;;59.50;22.10;;;;;;;0.96;100.00;99957.95;106860;1242;99322;-71
2022/12/09 00:33:51;;;;;;;57.50;21.00;;;;;;;0.94;100.00;99959.92;106653;1237;140503;-70
2022/12/09 00:36:19;;;;;;;52.10;21.10;;;;;;;0.93;100.00;99959.23;106817;1241;99106;-71
2022/12/09 00:38:45;;;;;;;53.70;22.30;;;;;;;0.90;100.00;99959.81;106791;1246;100841;-70
2022/12/09 00:41:12;;;;;;;55.80;21.20;;;;;;;0.88;100.00;99958.96;106695;1242;141193;-70
2022/12/09 00:43:38;;;;;;;59.20;24.90;;;;;;;0.89;100.00;99964.21;106794;1244;98977;-70
2022/12/09 00:46:04;;;;;;;58.90;24.00;;;;;;;0.90;100.00;99965.61;106763;1238;138826;-70
2022/12/09 00:48:29;;;;;;;61.90;24.30;;;;;;;0.90;100.00;99969.13;106748;1235;99017;-70
2022/12/09 00:50:55;;;;;;;62.50;24.20;;;;;;;0.90;100.00;99972.12;106816;1243;99315;-70
2022/12/09 00:53:20;;;;;;;62.80;24.40;;;;;;;0.91;100.00;99975.62;106861;1249;138722;-69
2022/12/09 00:55:46;;;;;;;61.30;24.30;;;;;;;0.93;100.00;99974.55;106846;1238;99988;-70
2022/12/09 00:58:12;;;;;;;64.90;25.00;;;;;;;0.93;100.00;99975.77;106700;1241;139305;-69
2022/12/09 01:00:39;;;;;;;62.90;24.20;;;;;;;0.94;100.00;99978.58;106872;1237;106880;-70
2022/12/09 01:03:04;;;;;;;65.40;25.60;;;;;;;0.95;100.00;99979.79;106795;1253;99196;-69
2022/12/09 01:05:29;;;;;;;66.40;24.30;;;;;;;0.95;100.00;99975.21;106764;1236;139178;-70
2022/12/09 01:07:55;;;;;;;63.70;24.90;;;;;;;0.93;100.00;99975.94;106843;1251;99184;-70
2022/12/09 01:10:21;;;;;;;66.90;25.00;;;;;;;0.94;100.00;99976.45;106648;1243;138911;-69
2022/12/09 01:12:47;;;;;;;63.20;24.40;;;;;;;0.96;100.00;99975.73;106857;1242;98972;-70
2022/12/09 01:15:12;;;;;;;67.00;23.30;;;;;;;0.96;100.00;99976.27;106769;1235;98887;-70
2022/12/09 01:17:39;;;;;;;62.70;22.70;;;;;;;0.96;100.00;99976.95;106743;1245;138554;-70
2022/12/09 01:20:06;;;;;;;65.20;24.30;;;;;;;0.95;100.00;99980.85;106981;1245;99012;-70
2022/12/09 01:22:31;;;;;;;59.60;24.60;;;;;;;0.95;100.00;99982.42;106670;1236;141002;-69
2022/12/09 01:24:57;;;;;;;60.10;23.60;;;;;;;0.95;100.00;99977.14;106765;1240;99018;-71
2022/12/09 01:27:23;;;;;;;62.90;25.10;;;;;;;0.98;100.00;99974.46;106796;1235;99086;-71
2022/12/09 01:29:48;;;;;;;64.80;25.50;;;;;;;1.00;100.00;99973.91;106699;1255;140705;-71
2022/12/09 01:32:13;;;;;;;64.10;25.00;;;;;;;1.01;100.00;99969.49;106796;1237;99169;-71
2022/12/09 01:34:39;;;;;;;65.50;24.90;;;;;;;1.00;100.00;99968.80;106760;1244;138594;-72
2022/12/09 01:37:04;;;;;;;60.00;23.20;;;;;;;1.00;100.00;99974.45;106835;1248;98969;-69
2022/12/09 01:39:30;;;;;;;64.30;24.80;;;;;;;1.03;100.00;99974.22;106740;1244;139329;-68
2022/12/09 01:41:55;;;;;;;73.20;26.70;;;;;;;1.04;100.00;99975.08;106846;1240;98904;-69
2022/12/09 01:44:23;;;;;;;75.50;25.80;;;;;;;1.09;100.00;99977.99;106811;1249;99073;-71
2022/12/09 01:46:53;;;;;;;67.30;23.90;;;;;;;1.10;100.00;99977.97;106726;1243;140220;-71
2022/12/09 01:49:41;;;;;;;69.90;25.20;;;;;;;1.11;100.00;99980.61;106728;1234;99522;-69
2022/12/09 01:52:12;;;;;;;65.20;27.00;;;;;;;1.10;100.00;99980.95;106650;1243;138698;-69
2022/12/09 01:54:40;;;;;;;69.60;26.30;;;;;;;1.11;100.00;99983.95;106800;1239;112758;-69
2022/12/09 01:57:06;;;;;;;87.00;29.10;;;;;;;1.11;100.00;99983.60;106759;1248;99670;-70
2022/12/09 01:59:32;;;;;;;84.90;31.10;;;;;;;1.12;100.00;99983.74;106713;1254;139582;-71
2022/12/09 02:01:59;;;;;;;88.20;30.10;;;;;;;1.13;100.00;99983.56;106877;1254;99177;-71
2022/12/09 02:04:28;;;;;;;90.80;33.40;;;;;;;1.12;100.00;99989.20;106662;1235;139880;-71
2022/12/09 02:06:56;;;;;;;96.20;34.30;;;;;;;1.12;100.00;99986.74;106903;1249;99007;-71
2022/12/09 02:09:21;;;;;;;101.70;36.80;;;;;;;1.09;100.00;99985.20;106757;1254;107370;-71
2022/12/09 02:11:49;;;;;;;90.30;31.10;;;;;;;1.10;100.00;99982.20;106725;1249;138999;-69
2022/12/09 02:14:20;;;;;;;93.40;30.90;;;;;;;1.11;100.00;99981.13;106809;1236;99024;-72
2022/12/09 02:17:16;;;;;;;88.50;31.80;;;;;;;1.10;100.00;99985.90;106642;1241;138716;-72
2022/12/09 02:20:00;;;;;;;92.80;33.50;;;;;;;1.09;100.00;99985.91;106797;1237;99088;-70
2022/12/09 02:22:39;;;;;;;92.40;31.40;;;;;;;1.12;100.00;99985.69;106652;1234;138695;-69
2022/12/09 02:25:22;;;;;;;95.70;30.60;;;;;;;1.12;100.00;99994.83;106768;1249;99063;-69
2022/12/09 02:27:57;;;;;;;92.80;33.40;;;;;;;1.10;100.00;99993.10;106679;1238;138835;-70
2022/12/09 02:30:33;;;;;;;87.70;30.50;;;;;;;1.09;100.00;99994.18;106749;1238;116862;-69
2022/12/09 02:33:10;;;;;;;86.00;30.50;;;;;;;1.07;100.00;99992.45;106729;1238;99325;-69
2022/12/09 02:35:45;;;;;;;78.90;26.70;;;;;;;1.03;100.00;100000.44;106760;1249;138808;-69
2022/12/09 02:38:22;;;;;;;86.10;29.60;;;;;;;1.03;100.00;100002.36;106685;1237;99333;-70
2022/12/09 02:40:55;;;;;;;70.80;27.30;;;;;;;0.98;100.00;100004.36;106703;1238;138874;-70
2022/12/09 02:43:24;;;;;;;71.40;24.70;;;;;;;0.94;100.00;100005.65;106768;1249;113534;-70
2022/12/09 02:45:52;;;;;;;73.30;25.90;;;;;;;0.93;100.00;100003.21;106735;1246;142597;-70
2022/12/09 02:48:23;;;;;;;75.80;26.60;;;;;;;0.89;100.00;100006.61;106729;1245;108030;-70
2022/12/09 02:50:52;;;;;;;77.00;26.30;;;;;;;0.90;100.00;100008.70;106720;1237;98981;-69
2022/12/09 02:53:20;;;;;;;67.80;25.20;;;;;;;0.92;100.00;100009.73;106681;1243;140949;-70
2022/12/09 02:55:48;;;;;;;73.10;27.00;;;;;;;0.91;100.00;100005.88;106834;1255;112490;-69
2022/12/09 02:58:13;;;;;;;63.60;24.40;;;;;;;0.91;100.00;100007.80;106637;1243;139649;-69
2022/12/09 03:00:40;;;;;;;72.50;25.80;;;;;;;0.93;100.00;100005.51;106740;1238;98963;-70
2022/12/09 03:03:11;;;;;;;65.40;23.50;;;;;;;0.95;100.00;100004.41;106888;1243;99012;-69
2022/12/09 03:05:54;;;;;;;73.90;24.10;;;;;;;0.95;100.00;100007.58;106707;1238;139842;-69
2022/12/09 03:08:33;;;;;;;71.20;23.90;;;;;;;0.92;100.00;100008.14;106775;1237;113796;-70
2022/12/09 03:11:02;;;;;;;79.40;25.20;;;;;;;0.87;100.00;100006.98;106728;1245;139646;-69
2022/12/09 03:13:34;;;;;;;78.10;26.40;;;;;;;0.88;100.00;100001.34;106850;1252;107751;-69
2022/12/09 03:16:09;;;;;;;78.50;25.60;;;;;;;0.90;100.00;99999.74;106625;1237;140427;-70
2022/12/09 03:18:40;;;;;;;88.50;29.70;;;;;;;0.91;100.00;99999.89;106813;1242;98735;-70
2022/12/09 03:21:06;;;;;;;58.80;19.70;;;;;;;0.95;100.00;100001.95;106821;1241;113197;-69
2022/12/09 03:23:34;;;;;;;87.20;28.20;;;;;;;0.95;100.00;99996.85;106729;1254;139105;-69
2022/12/09 03:26:01;;;;;;;85.00;26.50;;;;;;;0.96;100.00;99991.73;106805;1238;98984;-69
2022/12/09 03:28:32;;;;;;;92.20;30.10;;;;;;;0.98;100.00;99996.27;106749;1246;140653;-69
2022/12/09 03:31:02;;;;;;;78.30;26.70;;;;;;;1.02;100.00;99996.74;106904;1252;99074;-70
2022/12/09 03:33:30;;;;;;;77.40;26.30;;;;;;;1.04;100.00;99993.55;106754;1246;139913;-68
2022/12/09 03:35:59;;;;;;;73.20;26.00;;;;;;;1.03;100.00;99984.25;106948;1236;99181;-70
2022/12/09 03:38:29;;;;;;;80.40;25.20;;;;;;;1.00;100.00;99979.89;106799;1244;107952;-70
2022/12/09 03:41:14;;;;;;;81.50;28.60;;;;;;;1.01;100.00;99978.30;106745;1236;140179;-69
2022/12/09 03:43:46;;;;;;;76.90;26.10;;;;;;;1.01;100.00;99983.05;106788;1237;99215;-69
2022/12/09 03:46:12;;;;;;;76.80;26.40;;;;;;;1.01;100.00;99984.79;106725;1237;139703;-70
2022/12/09 03:48:37;;;;;;;70.80;23.70;;;;;;;0.96;100.00;99987.15;106724;1236;99047;-70
2022/12/09 03:51:13;;;;;;;73.80;26.50;;;;;;;0.97;100.00;99989.78;106843;1245;99141;-70
2022/12/09 03:53:50;;;;;;;79.50;26.20;;;;;;;1.00;100.00;99989.40;106770;1253;138667;-70
2022/12/09 03:56:22;;;;;;;73.30;27.10;;;;;;;1.02;100.00;99987.08;106758;1246;113470;-70
2022/12/09 03:58:52;;;;;;;68.30;26.20;;;;;;;1.03;100.00;99989.34;106738;1236;139850;-71
2022/12/09 04:01:18;;;;;;;70.30;25.30;;;;;;;1.05;100.00;99985.98;106759;1253;108696;-71
2022/12/09 04:03:48;;;;;;;68.10;23.00;;;;;;;1.04;100.00;99987.21;106778;1253;140870;-70
2022/12/09 04:06:14;;;;;;;73.60;25.70;;;;;;;1.04;100.00;99984.23;106825;1253;99397;-70
2022/12/09 04:08:39;;;;;;;71.40;25.30;;;;;;;1.05;100.00;99986.33;106873;1257;99107;-71
2022/12/09 04:11:05;;;;;;;71.20;25.60;;;;;;;1.05;100.00;99986.67;106794;1245;140807;-71
2022/12/09 04:13:30;;;;;;;73.80;25.40;;;;;;;1.06;100.00;99986.31;106760;1236;99139;-71
2022/12/09 04:15:55;;;;;;;63.90;24.00;;;;;;;1.04;100.00;99983.52;106725;1237;140361;-70
2022/12/09 04:18:21;;;;;;;69.30;23.40;;;;;;;1.00;100.00;99983.06;106843;1247;99964;-70
2022/12/09 04:20:46;;;;;;;64.80;23.30;;;;;;;0.99;100.00;99983.95;106777;1231;99829;-70
2022/12/09 04:23:11;;;;;;;66.80;24.10;;;;;;;0.97;100.00;99986.09;106710;1236;140131;-70
2022/12/09 04:25:36;;;;;;;68.50;23.40;;;;;;;0.94;100.00;99984.73;106806;1244;99047;-70
2022/12/09 04:28:02;;;;;;;73.40;25.80;;;;;;;0.88;100.00;99981.11;106789;1245;140445;-70
2022/12/09 04:30:29;;;;;;;73.50;26.10;;;;;;;0.87;100.00;99983.07;106774;1243;99114;-71
2022/12/09 04:32:54;;;;;;;70.10;24.60;;;;;;;0.90;100.00;99983.38;106797;1236;99084;-71
2022/12/09 04:35:20;;;;;;;72.00;26.00;;;;;;;0.91;100.00;99980.02;106672;1245;138705;-70
2022/12/09 04:37:45;;;;;;;66.20;24.60;;;;;;;0.89;100.00;99984.10;106818;1252;107607;-71
2022/12/09 04:40:11;;;;;;;72.60;25.30;;;;;;;0.87;100.00;99988.88;106684;1245;140640;-71
2022/12/09 04:42:37;;;;;;;70.70;25.50;;;;;;;0.83;100.00;99992.09;106929;1229;98938;-71
2022/12/09 04:45:03;;;;;;;71.40;24.00;;;;;;;0.82;100.00;99990.54;106773;1236;99072;-71
2022/12/09 04:47:29;;;;;;;69.80;24.40;;;;;;;0.82;100.00;99991.41;106690;1243;140164;-71
2022/12/09 04:49:54;;;;;;;68.60;24.20;;;;;;;0.81;100.00;99987.73;106805;1238;100014;-71
2022/12/09 04:52:20;;;;;;;69.20;24.50;;;;;;;0.81;100.00;99989.31;106731;1236;138867;-70
2022/12/09 04:54:47;;;;;;;71.30;24.80;;;;;;;0.81;100.00;99986.48;106789;1237;99055;-71
2022/12/09 04:57:12;;;;;;;68.70;26.70;;;;;;;0.79;100.00;99990.94;106780;1245;99529;-70
2022/12/09 04:59:38;;;;;;;79.20;25.90;;;;;;;0.75;100.00;99988.70;106732;1245;138713;-70
2022/12/09 05:02:03;;;;;;;65.80;24.50;;;;;;;0.75;100.00;99991.17;106781;1229;99484;-72
2022/12/09 05:04:28;;;;;;;68.50;25.80;;;;;;;0.73;100.00;99989.44;106700;1229;138808;-71
2022/12/09 05:06:54;;;;;;;78.80;27.70;;;;;;;0.68;100.00;99989.15;106727;1238;98437;-71
2022/12/09 05:09:19;;;;;;;79.20;28.50;;;;;;;0.65;100.00;99987.95;106781;1253;99144;-71
2022/12/09 05:11:44;;;;;;;77.80;25.80;;;;;;;0.64;100.00;99990.77;106783;1236;140659;-70
2022/12/09 05:14:10;;;;;;;72.70;25.20;;;;;;;0.61;100.00;99994.34;106771;1245;99808;-71
2022/12/09 05:16:35;;;;;;;66.60;23.10;;;;;;;0.60;100.00;99993.30;106735;1232;139663;-70
2022/12/09 05:19:00;;;;;;;72.60;25.20;;;;;;;0.60;100.00;99994.00;106766;1238;99113;-71
2022/12/09 05:21:26;;;;;;;65.70;24.90;;;;;;;0.59;100.00;99994.20;106831;1244;99086;-71
2022/12/09 05:23:51;;;;;;;72.20;27.30;;;;;;;0.55;100.00;100000.05;106669;1236;138326;-71
2022/12/09 05:26:18;;;;;;;71.20;23.80;;;;;;;0.53;100.00;100004.30;106883;1236;98971;-71
2022/12/09 05:28:45;;;;;;;67.80;22.60;;;;;;;0.52;100.00;100003.59;106780;1245;138835;-71
2022/12/09 05:31:16;;;;;;;65.90;25.20;;;;;;;0.52;100.00;100006.60;106865;1242;99007;-71
2022/12/09 05:33:42;;;;;;;;;;;;;;;0.52;100.00;100002.55;106781;1237;138791;-71
2022/12/09 05:36:12;;;;;;;88.30;27.60;;;;;;;0.52;100.00;100005.53;106744;1235;98992;-71
2022/12/09 05:38:38;;;;;;;74.60;25.90;;;;;;;0.51;100.00;100003.09;106822;1244;99717;-71
2022/12/09 05:41:03;;;;;;;68.80;24.60;;;;;;;0.48;100.00;100007.34;106719;1241;140367;-71
2022/12/09 05:43:30;;;;;;;71.00;25.50;;;;;;;0.49;100.00;100008.91;106879;1237;99068;-71
2022/12/09 05:45:55;;;;;;;74.30;26.10;;;;;;;0.48;100.00;100010.33;106782;1237;139754;-71
2022/12/09 05:48:20;;;;;;;76.30;25.10;;;;;;;0.48;100.00;100012.45;106778;1247;99073;-71
2022/12/09 05:50:56;;;;;;;66.50;24.60;;;;;;;0.46;100.00;100007.72;106872;1246;98974;-71
2022/12/09 05:53:21;;;;;;;72.80;25.40;;;;;;;0.45;100.00;100009.14;106727;1251;140824;-71
2022/12/09 05:55:46;;;;;;;75.80;25.80;;;;;;;0.46;100.00;100010.36;106746;1233;99077;-70
2022/12/09 05:58:11;;;;;;;78.50;26.50;;;;;;;0.45;100.00;100009.14;106752;1246;139424;-71
2022/12/09 06:00:37;;;;;;;69.80;25.20;;;;;;;0.45;100.00;100012.30;106804;1252;98970;-71
2022/12/09 06:03:02;;;;;;;68.00;23.80;;;;;;;0.44;100.00;100013.20;106810;1245;101126;-71
2022/12/09 06:05:27;;;;;;;82.10;27.70;;;;;;;0.42;100.00;100014.63;106698;1247;138965;-71
2022/12/09 06:07:52;;;;;;;75.70;26.40;;;;;;;0.40;100.00;100014.65;106880;1245;99084;-70
2022/12/09 06:10:18;;;;;;;69.00;24.10;;;;;;;0.41;100.00;100020.80;106636;1238;140603;-70
2022/12/09 06:12:43;;;;;;;74.30;25.70;;;;;;;0.43;100.00;100020.95;106727;1229;99039;-70
2022/12/09 06:15:09;;;;;;;74.40;26.90;;;;;;;0.43;100.00;100023.23;106786;1229;98964;-71
2022/12/09 06:17:34;;;;;;;73.60;24.60;;;;;;;0.44;100.00;100021.98;106587;1229;140299;-71
2022/12/09 06:20:00;;;;;;;76.50;25.50;;;;;;;0.42;100.00;100021.84;106796;1245;100124;-70
2022/12/09 06:22:25;;;;;;;75.90;25.60;;;;;;;0.41;100.00;100020.62;106756;1245;141264;-70
2022/12/09 06:24:50;;;;;;;80.30;27.20;;;;;;;0.40;100.00;100020.98;106702;1232;99133;-70
2022/12/09 06:27:16;;;;;;;74.80;27.40;;;;;;;0.38;100.00;100024.70;106832;1245;98961;-70
2022/12/09 06:29:41;;;;;;;74.50;24.30;;;;;;;0.36;100.00;100027.88;106623;1237;141050;-70
2022/12/09 06:32:07;;;;;;;74.70;26.10;;;;;;;0.38;100.00;100027.52;106784;1236;100038;-71
2022/12/09 06:34:32;;;;;;;82.60;28.50;;;;;;;0.40;100.00;100029.77;106641;1243;138980;-71
2022/12/09 06:36:57;;;;;;;74.10;26.90;;;;;;;0.43;100.00;100030.27;106735;1243;99021;-70
2022/12/09 06:39:23;;;;;;;82.20;26.60;;;;;;;0.43;100.00;100028.86;106848;1237;99078;-71
2022/12/09 06:41:48;;;;;;;72.70;26.30;;;;;;;0.43;100.00;100031.84;106662;1253;140539;-70
2022/12/09 06:44:13;;;;;;;84.50;26.90;;;;;;;0.44;100.00;100031.30;106849;1244;97836;-70
2022/12/09 06:46:39;;;;;;;88.50;29.20;;;;;;;0.43;100.00;100037.29;106671;1236;139347;-71
2022/12/09 06:49:04;;;;;;;78.00;27.60;;;;;;;0.44;100.00;100038.33;106791;1236;98970;-69
2022/12/09 06:51:29;;;;;;;99.30;27.90;;;;;;;0.45;100.00;100037.09;106818;1245;139774;-69
2022/12/09 06:53:55;;;;;;;104.80;30.20;;;;;;;0.52;100.00;100039.27;106845;1236;100470;-69
2022/12/09 06:56:21;;;;;;;83.70;27.60;;;;;;;0.62;100.00;100033.17;106877;1229;98972;-70
2022/12/09 06:58:47;;;;;;;107.30;30.80;;;;;;;0.67;100.00;100035.58;106748;1233;140041;-70
2022/12/09 07:01:18;;;;;;;133.30;31.10;;;;;;;0.68;100.00;100035.56;106834;1238;99062;-70
2022/12/09 07:03:47;;;;;;;135.70;31.00;;;;;;;0.79;100.00;100035.94;106779;1236;140375;-69
2022/12/09 07:06:27;;;;;;;166.00;32.90;;;;;;;0.90;100.00;100041.24;106805;1246;98987;-70
2022/12/09 07:08:53;;;;;;;193.80;37.80;;;;;;;0.95;100.00;100047.69;106780;1236;100601;-69
2022/12/09 07:11:18;;;;;;;280.40;42.90;;;;;;;1.00;100.00;100046.55;108098;1244;139532;-68
2022/12/09 07:13:44;;;;;;;244.00;45.10;;;;;;;1.07;100.00;100049.27;106910;1243;99094;-70
2022/12/09 07:16:10;;;;;;;201.20;44.30;;;;;;;1.15;100.00;100051.45;106614;1229;139430;-69
2022/12/09 07:18:36;;;;;;;189.30;42.60;;;;;;;1.21;100.00;100050.30;106767;1229;99348;-69
2022/12/09 07:21:06;;;;;;;119.60;33.90;;;;;;;1.25;100.00;100046.55;106809;1229;98959;-69
2022/12/09 07:23:31;;;;;;;129.00;34.60;;;;;;;1.22;100.00;100046.95;106679;1239;139372;-69
2022/12/09 07:25:57;;;;;;;120.20;31.20;;;;;;;1.20;100.00;100048.02;106859;1237;98999;-70
2022/12/09 07:28:22;;;;;;;115.10;31.20;;;;;;;1.16;100.00;100049.84;106746;1245;139447;-68
2022/12/09 07:30:47;;;;;;;112.50;28.70;;;;;;;1.15;100.00;100049.16;106747;1236;99071;-68
2022/12/09 07:33:12;;;;;;;135.30;33.10;;;;;;;1.17;100.00;100050.70;106710;1244;100680;-68
2022/12/09 07:35:38;;;;;;;130.10;32.20;;;;;;;1.19;100.00;100048.58;106717;1244;139627;-69
2022/12/09 07:38:03;;;;;;;90.60;28.50;;;;;;;1.17;100.00;100048.61;106877;1236;99102;-69
2022/12/09 07:40:28;;;;;;;104.90;30.30;;;;;;;1.10;100.00;100048.89;106746;1253;138717;-69
2022/12/09 07:42:53;;;;;;;129.70;35.00;;;;;;;1.05;100.00;100048.78;106782;1245;99261;-69
2022/12/09 07:45:19;;;;;;;95.50;30.90;;;;;;;1.04;100.00;100049.14;106851;1244;99787;-69
2022/12/09 07:47:44;;;;;;;116.00;33.00;;;;;;;1.03;100.00;100051.63;106740;1252;139573;-69
2022/12/09 07:50:10;;;;;;;95.60;32.40;;;;;;;1.02;100.00;100051.11;106876;1245;98994;-71
2022/12/09 07:52:35;;;;;;;111.70;33.80;;;;;;;1.01;100.00;100053.95;106617;1245;139775;-69
2022/12/09 07:55:00;;;;;;;90.50;32.10;;;;;;;1.01;100.00;100054.82;106543;1229;100106;-69
2022/12/09 07:57:28;;;;;;;91.50;31.80;;;;;;;0.95;100.00;100053.84;106784;1237;99041;-69
2022/12/09 07:59:55;;;;;;;73.60;26.90;;;;;;;0.86;100.00;100053.96;106718;1252;99221;-69
2022/12/09 08:02:21;;;;;;;80.60;28.50;;;;;;;0.75;100.00;100059.92;106783;1247;99331;-69
2022/12/09 08:04:46;;;;;;;97.10;29.00;;;;;;;0.67;100.00;100060.19;106735;1252;140194;-71
2022/12/09 08:07:11;;;;;;;85.80;29.60;;;;;;;0.66;100.00;100063.20;106837;1239;99063;-70
2022/12/09 08:09:36;;;;;;;85.50;28.60;;;;;;;0.67;100.00;100068.81;106724;1239;140662;-69
2022/12/09 08:12:02;;;;;;;78.80;28.90;;;;;;;0.62;100.00;100066.93;106921;1237;98943;-70
2022/12/09 08:14:27;;;;;;;83.40;28.20;;;;;;;0.61;100.00;100071.35;106782;1229;100509;-70
2022/12/09 08:16:53;;;;;;;75.20;25.10;;;;;;;0.56;100.00;100067.88;106708;1236;139693;-70
2022/12/09 08:19:18;;;;;;;117.60;30.10;;;;;;;0.48;100.00;100070.80;106706;1236;99459;-71
2022/12/09 08:21:44;;;;;;;89.70;28.90;;;;;;;0.45;100.00;100071.88;106632;1236;140769;-70
2022/12/09 08:24:10;;;;;;;113.30;30.70;;;;;;;0.48;100.00;100072.56;106763;1229;99729;-70
2022/12/09 08:26:37;;;;;;;82.70;27.50;;;;;;;0.55;100.00;100073.17;106759;1237;99102;-70
2022/12/09 08:29:09;;;;;;;78.30;27.20;;;;;;;0.48;100.00;100073.26;106706;1236;139459;-71
2022/12/09 08:31:35;;;;;;;177.20;34.90;;;;;;;0.42;100.00;100072.80;106781;1246;112641;-71
2022/12/09 08:34:05;;;;;;;97.80;32.50;;;;;;;0.46;100.00;100074.86;106624;1237;140361;-70
2022/12/09 08:36:31;;;;;;;123.60;29.70;;;;;;;0.54;100.00;100071.42;106751;1245;107645;-70
2022/12/09 08:38:59;;;;;;;134.20;30.20;;;;;;;0.66;100.00;100067.60;106752;1240;99044;-70
2022/12/09 08:41:35;;;;;;;94.60;28.40;;;;;;;0.73;100.00;100068.39;106673;1244;139910;-69
2022/12/09 08:44:05;;;;;;;207.60;40.10;;;;;;;0.78;100.00;100067.45;106827;1244;113000;-71
2022/12/09 08:46:32;;;;;;;157.70;34.00;;;;;;;0.91;100.00;100064.45;106749;1245;139698;-71
2022/12/09 08:49:00;;;;;;;246.30;41.00;;;;;;;1.02;100.00;100066.95;106637;1237;100774;-70
2022/12/09 08:51:26;;;;;;;125.20;33.40;;;;;;;1.11;100.00;100067.69;106816;1244;99003;-72
2022/12/09 08:53:51;;;;;;;176.30;35.10;;;;;;;0.98;100.00;100065.77;106688;1237;138920;-72
2022/12/09 08:56:17;;;;;;;191.50;39.20;;;;;;;0.87;100.00;100072.42;106748;1229;99370;-72
2022/12/09 08:58:42;;;;;;;176.00;34.70;;;;;;;0.90;100.00;100075.02;106865;1236;140738;-70
2022/12/09 09:01:16;;;;;;;135.60;34.00;;;;;;;1.00;100.00;100077.35;106674;1233;99588;-71
2022/12/09 09:03:43;;;;;;;145.00;32.60;;;;;;;1.11;100.00;100080.36;106680;1229;139193;-70
2022/12/09 09:06:09;;;;;;;162.20;34.50;;;;;;;1.12;100.00;100081.05;106986;1236;99483;-71
2022/12/09 09:08:34;;;;;;;103.50;31.40;;;;;;;1.14;100.00;100075.76;106782;1229;99304;-70
2022/12/09 09:10:59;;;;;;;97.20;32.50;;;;;;;1.17;100.00;100076.76;106636;1236;141771;-71
2022/12/09 09:13:25;;;;;;;90.90;30.00;;;;;;;1.16;100.00;100075.36;106808;1236;98979;-72
2022/12/09 09:15:51;;;;;;;95.40;31.30;;;;;;;1.15;100.00;100074.85;106909;1243;140241;-69
2022/12/09 09:18:16;;;;;;;97.80;32.20;;;;;;;1.14;100.00;100074.86;106683;1237;108013;-70
2022/12/09 09:20:46;;;;;;;90.80;30.90;;;;;;;1.16;100.00;100076.06;106695;1258;99040;-70
2022/12/09 09:23:12;;;;;;;102.00;31.70;;;;;;;1.18;100.00;100071.64;106609;1229;138834;-71
2022/12/09 09:25:41;;;;;;;101.00;32.10;;;;;;;1.20;100.00;100072.50;106787;1251;99010;-69
2022/12/09 09:28:06;;;;;;;99.80;33.80;;;;;;;1.22;100.00;100072.27;106763;1248;141320;-70
2022/12/09 09:30:33;;;;;;;106.50;33.40;;;;;;;1.27;100.00;100077.85;106639;1229;99564;-71
2022/12/09 09:32:58;;;;;;;96.70;31.70;;;;;;;1.29;100.00;100076.05;106848;1234;99190;-71
2022/12/09 09:35:24;;;;;;;89.30;31.90;;;;;;;1.28;100.00;100075.17;106643;1236;139253;-72
2022/12/09 09:37:50;;;;;;;91.00;31.20;;;;;;;1.29;100.00;100078.17;106799;1245;99060;-71
2022/12/09 09:40:16;;;;;;;84.50;30.90;;;;;;;1.25;100.00;100078.39;106713;1236;140342;-70
2022/12/09 09:42:47;;;;;;;97.70;33.50;;;;;;;1.25;100.00;100081.92;106760;1245;98948;-75
2022/12/09 09:45:17;;;;;;;117.40;35.40;;;;;;;1.29;100.00;100080.64;106696;1237;112655;-75
2022/12/09 09:47:48;;;;;;;95.30;31.60;;;;;;;1.34;100.00;100084.61;106628;1237;140202;-75
2022/12/09 09:50:42;;;;;;;106.90;33.30;;;;;;;1.35;100.00;100081.60;106708;1246;107803;-75
2022/12/09 09:53:16;;;;;;;88.50;29.40;;;;;;;1.36;100.00;100084.21;106576;1229;141344;-77
2022/12/09 09:55:46;;;;;;;93.50;30.30;;;;;;;1.36;100.00;100085.29;106817;1236;99376;-76
2022/12/09 09:58:37;;;;;;;101.60;33.40;;;;;;;1.35;100.00;100084.59;106714;1245;140597;-76
2022/12/09 10:01:11;;;;;;;102.10;29.70;;;;;;;1.39;100.00;100083.99;106872;1229;99438;-72
2022/12/09 10:03:54;;;;;;;89.30;32.40;;;;;;;1.43;100.00;100082.71;106729;1236;139319;-75
2022/12/09 10:06:35;;;;;;;95.40;31.40;;;;;;;1.48;100.00;100082.63;106797;1241;99429;-75
2022/12/09 10:09:28;;;;;;;102.00;32.50;;;;;;;1.48;100.00;100083.15;106738;1229;102701;-73
2022/12/09 10:11:59;;;;;;;93.30;33.10;;;;;;;1.49;100.00;100088.24;106760;1229;113127;-73
2022/12/09 10:14:41;;;;;;;106.10;32.50;;;;;;;1.50;100.00;100081.73;106865;1229;99184;-74
2022/12/09 10:17:32;;;;;;;83.50;29.00;;;;;;;1.51;100.00;100076.41;106670;1236;139429;-74
2022/12/09 10:20:08;;;;;;;89.90;31.00;;;;;;;1.50;100.00;100077.31;106736;1237;100634;-75
2022/12/09 10:22:41;;;;;;;85.40;29.10;;;;;;;1.49;100.00;100077.33;106713;1229;138910;-75
2022/12/09 10:25:35;;;;;;;96.90;32.90;;;;;;;1.52;100.00;100069.90;106668;1233;112969;-77
2022/12/09 10:28:06;;;;;;;88.60;31.30;;;;;;;1.56;100.00;100070.00;106678;1236;140453;-76
2022/12/09 10:30:32;;;;;;;104.60;31.90;;;;;;;1.60;100.00;100067.83;106841;1236;107721;-76
2022/12/09 10:32:57;;;;;;;87.40;31.60;;;;;;;1.67;100.00;100066.84;106821;1236;99434;-75
2022/12/09 10:35:26;;;;;;;94.50;32.60;;;;;;;1.69;100.00;100066.63;106688;1229;138947;-77
2022/12/09 10:37:54;;;;;;;103.40;34.10;;;;;;;1.67;100.00;100068.77;106872;1232;99243;-74
2022/12/09 10:40:24;;;;;;;92.00;33.90;;;;;;;1.69;100.00;100063.64;106636;1229;139594;-74
2022/12/09 10:45:53;;;;;;;88.50;30.60;;;;;;;1.71;100.00;100066.06;106715;1236;140071;-74
2022/12/09 10:48:35;;;;;;;90.10;31.90;;;;;;;1.71;100.00;100067.64;106770;1229;112955;-75
2022/12/09 10:51:05;;;;;;;99.60;33.10;;;;;;;1.75;100.00;100066.52;106842;1244;100463;-75
2022/12/09 10:53:32;;;;;;;99.30;30.60;;;;;;;1.76;100.00;100063.86;106621;1244;140400;-74
2022/12/09 10:56:00;;;;;;;88.20;29.40;;;;;;;1.78;100.00;100063.48;106763;1236;98972;-74
2022/12/09 10:58:28;;;;;;;83.00;29.80;;;;;;;1.77;100.00;100058.03;106689;1231;139717;-75
2022/12/09 11:01:07;;;;;;;103.60;36.30;;;;;;;1.81;100.00;100054.79;106798;1229;112218;-75
2022/12/09 11:03:38;;;;;;;100.60;34.00;;;;;;;1.85;100.00;100052.96;106632;1229;140548;-74
2022/12/09 11:06:19;;;;;;;95.00;33.60;;;;;;;1.90;100.00;100048.47;106808;1247;108134;-75
2022/12/09 11:09:01;;;;;;;88.30;31.20;;;;;;;1.96;100.00;100043.78;106705;1248;99047;-74